sensor_id;sensor_type;location;lat;lon;timestamp;P1;durP1;ratioP1;P2;durP2;ratioP2
22963;SDS011;11648;49.306;6.934;2023-09-18T00:00:24;6.47;;;3.03;;
22963;SDS011;11648;49.306;6.934;2023-09-18T00:02:51;5.83;;;2.90;;
22963;SDS011;11648;49.306;6.934;2023-09-18T00:05:18;9.03;;;2.83;;
22963;SDS011;11648;49.306;6.934;2023-09-18T00:07:45;7.00;;;3.10;;
22963;SDS011;11648;49.306;6.934;2023-09-18T00:10:12;6.77;;;2.90;;
22963;SDS011;11648;49.306;6.934;2023-09-18T00:12:39;7.93;;;2.90;;
22963;SDS011;11648;49.306;6.934;2023-09-18T00:15:06;7.10;;;2.77;;
22963;SDS011;11648;49.306;6.934;2023-09-18T00:17:35;8.33;;;3.10;;
22963;SDS011;11648;49.306;6.934;2023-09-18T00:20:03;7.00;;;3.10;;
22963;SDS011;11648;49.306;6.934;2023-09-18T00:22:33;7.33;;;2.90;;
22963;SDS011;11648;49.306;6.934;2023-09-18T00:25:00;5.50;;;2.80;;
22963;SDS011;11648;49.306;6.934;2023-09-18T00:27:30;11.03;;;3.57;;
22963;SDS011;11648;49.306;6.934;2023-09-18T00:29:57;8.60;;;3.27;;
22963;SDS011;11648;49.306;6.934;2023-09-18T00:32:24;8.43;;;3.10;;
22963;SDS011;11648;49.306;6.934;2023-09-18T00:34:50;9.50;;;3.23;;
22963;SDS011;11648;49.306;6.934;2023-09-18T00:37:17;4.83;;;2.80;;
22963;SDS011;11648;49.306;6.934;2023-09-18T00:39:44;7.70;;;3.00;;
22963;SDS011;11648;49.306;6.934;2023-09-18T00:42:11;7.73;;;2.90;;
22963;SDS011;11648;49.306;6.934;2023-09-18T00:44:40;9.03;;;2.83;;
22963;SDS011;11648;49.306;6.934;2023-09-18T00:47:07;10.60;;;2.97;;
22963;SDS011;11648;49.306;6.934;2023-09-18T00:49:35;11.00;;;3.00;;
22963;SDS011;11648;49.306;6.934;2023-09-18T00:52:05;16.47;;;3.97;;
22963;SDS011;11648;49.306;6.934;2023-09-18T00:54:34;11.70;;;3.70;;
22963;SDS011;11648;49.306;6.934;2023-09-18T00:57:03;11.90;;;3.03;;
22963;SDS011;11648;49.306;6.934;2023-09-18T00:59:31;13.10;;;3.20;;
22963;SDS011;11648;49.306;6.934;2023-09-18T01:01:58;11.47;;;3.20;;
22963;SDS011;11648;49.306;6.934;2023-09-18T01:04:25;15.00;;;3.43;;
22963;SDS011;11648;49.306;6.934;2023-09-18T01:06:55;12.53;;;3.37;;
22963;SDS011;11648;49.306;6.934;2023-09-18T01:09:24;16.33;;;3.60;;
22963;SDS011;11648;49.306;6.934;2023-09-18T01:11:57;9.73;;;3.40;;
22963;SDS011;11648;49.306;6.934;2023-09-18T01:17:07;8.67;;;3.03;;
22963;SDS011;11648;49.306;6.934;2023-09-18T01:19:37;9.13;;;3.10;;
22963;SDS011;11648;49.306;6.934;2023-09-18T01:22:06;16.13;;;3.70;;
22963;SDS011;11648;49.306;6.934;2023-09-18T01:24:35;10.70;;;3.80;;
22963;SDS011;11648;49.306;6.934;2023-09-18T01:27:03;11.83;;;4.23;;
22963;SDS011;11648;49.306;6.934;2023-09-18T01:29:31;11.77;;;4.20;;
22963;SDS011;11648;49.306;6.934;2023-09-18T01:31:58;11.87;;;3.80;;
22963;SDS011;11648;49.306;6.934;2023-09-18T01:34:25;9.47;;;3.30;;
22963;SDS011;11648;49.306;6.934;2023-09-18T01:36:58;10.90;;;4.03;;
22963;SDS011;11648;49.306;6.934;2023-09-18T01:39:26;10.97;;;3.03;;
22963;SDS011;11648;49.306;6.934;2023-09-18T01:42:00;11.23;;;3.80;;
22963;SDS011;11648;49.306;6.934;2023-09-18T01:44:29;9.97;;;3.20;;
22963;SDS011;11648;49.306;6.934;2023-09-18T01:46:56;9.33;;;3.20;;
22963;SDS011;11648;49.306;6.934;2023-09-18T01:49:38;8.27;;;3.40;;
22963;SDS011;11648;49.306;6.934;2023-09-18T01:52:06;14.37;;;3.20;;
22963;SDS011;11648;49.306;6.934;2023-09-18T01:54:34;11.53;;;3.57;;
22963;SDS011;11648;49.306;6.934;2023-09-18T01:57:02;8.10;;;2.93;;
22963;SDS011;11648;49.306;6.934;2023-09-18T01:59:29;10.23;;;3.10;;
22963;SDS011;11648;49.306;6.934;2023-09-18T02:01:57;9.80;;;3.63;;
22963;SDS011;11648;49.306;6.934;2023-09-18T02:04:24;11.73;;;3.53;;
22963;SDS011;11648;49.306;6.934;2023-09-18T02:07:12;13.87;;;3.87;;
22963;SDS011;11648;49.306;6.934;2023-09-18T02:09:40;10.97;;;3.20;;
22963;SDS011;11648;49.306;6.934;2023-09-18T02:12:07;13.13;;;4.10;;
22963;SDS011;11648;49.306;6.934;2023-09-18T02:14:34;11.53;;;3.50;;
22963;SDS011;11648;49.306;6.934;2023-09-18T02:17:00;13.90;;;3.73;;
22963;SDS011;11648;49.306;6.934;2023-09-18T02:19:27;12.50;;;3.87;;
22963;SDS011;11648;49.306;6.934;2023-09-18T02:21:56;11.60;;;3.50;;
22963;SDS011;11648;49.306;6.934;2023-09-18T02:24:24;11.97;;;3.33;;
22963;SDS011;11648;49.306;6.934;2023-09-18T02:26:53;12.67;;;3.60;;
22963;SDS011;11648;49.306;6.934;2023-09-18T02:29:20;14.43;;;3.40;;
22963;SDS011;11648;49.306;6.934;2023-09-18T02:31:47;17.87;;;3.50;;
22963;SDS011;11648;49.306;6.934;2023-09-18T02:34:14;11.43;;;3.20;;
22963;SDS011;11648;49.306;6.934;2023-09-18T02:36:40;12.60;;;3.63;;
22963;SDS011;11648;49.306;6.934;2023-09-18T02:39:07;11.47;;;3.00;;
22963;SDS011;11648;49.306;6.934;2023-09-18T02:41:34;11.33;;;3.30;;
22963;SDS011;11648;49.306;6.934;2023-09-18T02:44:01;10.00;;;3.50;;
22963;SDS011;11648;49.306;6.934;2023-09-18T02:46:27;11.97;;;3.43;;
22963;SDS011;11648;49.306;6.934;2023-09-18T02:48:54;11.33;;;3.43;;
22963;SDS011;11648;49.306;6.934;2023-09-18T02:51:21;12.10;;;3.60;;
22963;SDS011;11648;49.306;6.934;2023-09-18T02:53:48;13.70;;;3.40;;
22963;SDS011;11648;49.306;6.934;2023-09-18T02:56:15;11.87;;;3.60;;
22963;SDS011;11648;49.306;6.934;2023-09-18T02:58:42;11.53;;;3.40;;
22963;SDS011;11648;49.306;6.934;2023-09-18T03:01:09;16.20;;;4.03;;
22963;SDS011;11648;49.306;6.934;2023-09-18T03:03:35;12.03;;;3.10;;
22963;SDS011;11648;49.306;6.934;2023-09-18T03:06:03;14.20;;;4.07;;
22963;SDS011;11648;49.306;6.934;2023-09-18T03:08:31;12.47;;;3.43;;
22963;SDS011;11648;49.306;6.934;2023-09-18T03:10:59;11.67;;;3.33;;
22963;SDS011;11648;49.306;6.934;2023-09-18T03:13:27;14.33;;;3.23;;
22963;SDS011;11648;49.306;6.934;2023-09-18T03:15:55;12.43;;;3.20;;
22963;SDS011;11648;49.306;6.934;2023-09-18T03:18:24;11.27;;;3.30;;
22963;SDS011;11648;49.306;6.934;2023-09-18T03:20:51;12.80;;;3.23;;
22963;SDS011;11648;49.306;6.934;2023-09-18T03:23:18;15.17;;;3.43;;
22963;SDS011;11648;49.306;6.934;2023-09-18T03:25:45;13.80;;;3.60;;
22963;SDS011;11648;49.306;6.934;2023-09-18T03:28:19;10.97;;;3.57;;
22963;SDS011;11648;49.306;6.934;2023-09-18T03:30:46;15.03;;;3.40;;
22963;SDS011;11648;49.306;6.934;2023-09-18T03:33:13;15.17;;;3.70;;
22963;SDS011;11648;49.306;6.934;2023-09-18T03:35:47;11.33;;;3.23;;
22963;SDS011;11648;49.306;6.934;2023-09-18T03:38:18;12.20;;;3.30;;
22963;SDS011;11648;49.306;6.934;2023-09-18T03:40:45;11.20;;;3.37;;
22963;SDS011;11648;49.306;6.934;2023-09-18T03:43:12;15.83;;;3.40;;
22963;SDS011;11648;49.306;6.934;2023-09-18T03:45:39;11.40;;;3.30;;
22963;SDS011;11648;49.306;6.934;2023-09-18T03:48:10;15.50;;;3.60;;
22963;SDS011;11648;49.306;6.934;2023-09-18T03:50:38;13.63;;;3.77;;
22963;SDS011;11648;49.306;6.934;2023-09-18T03:53:06;12.57;;;3.50;;
22963;SDS011;11648;49.306;6.934;2023-09-18T03:55:33;12.33;;;3.93;;
22963;SDS011;11648;49.306;6.934;2023-09-18T03:58:00;11.50;;;3.53;;
22963;SDS011;11648;49.306;6.934;2023-09-18T04:00:27;15.33;;;3.90;;
22963;SDS011;11648;49.306;6.934;2023-09-18T04:02:53;13.27;;;4.20;;
22963;SDS011;11648;49.306;6.934;2023-09-18T04:05:21;13.83;;;3.60;;
22963;SDS011;11648;49.306;6.934;2023-09-18T04:07:48;9.53;;;3.43;;
22963;SDS011;11648;49.306;6.934;2023-09-18T04:10:15;12.03;;;4.00;;
22963;SDS011;11648;49.306;6.934;2023-09-18T04:12:46;14.63;;;3.60;;
22963;SDS011;11648;49.306;6.934;2023-09-18T04:15:14;13.50;;;3.90;;
22963;SDS011;11648;49.306;6.934;2023-09-18T04:17:41;9.53;;;3.60;;
22963;SDS011;11648;49.306;6.934;2023-09-18T04:20:08;13.33;;;3.37;;
22963;SDS011;11648;49.306;6.934;2023-09-18T04:22:36;9.80;;;3.30;;
22963;SDS011;11648;49.306;6.934;2023-09-18T04:25:03;11.03;;;3.30;;
22963;SDS011;11648;49.306;6.934;2023-09-18T04:27:32;9.10;;;2.87;;
22963;SDS011;11648;49.306;6.934;2023-09-18T04:29:58;7.60;;;2.90;;
22963;SDS011;11648;49.306;6.934;2023-09-18T04:32:27;7.80;;;2.53;;
22963;SDS011;11648;49.306;6.934;2023-09-18T04:34:56;10.70;;;2.73;;
22963;SDS011;11648;49.306;6.934;2023-09-18T04:37:23;12.77;;;2.77;;
22963;SDS011;11648;49.306;6.934;2023-09-18T04:39:49;7.23;;;2.60;;
22963;SDS011;11648;49.306;6.934;2023-09-18T04:42:17;10.80;;;2.37;;
22963;SDS011;11648;49.306;6.934;2023-09-18T04:44:44;5.57;;;2.07;;
22963;SDS011;11648;49.306;6.934;2023-09-18T04:47:11;8.30;;;1.70;;
22963;SDS011;11648;49.306;6.934;2023-09-18T04:49:38;7.27;;;2.10;;
22963;SDS011;11648;49.306;6.934;2023-09-18T04:52:05;6.90;;;1.70;;
22963;SDS011;11648;49.306;6.934;2023-09-18T04:54:32;9.00;;;1.70;;
22963;SDS011;11648;49.306;6.934;2023-09-18T04:56:58;5.80;;;1.73;;
22963;SDS011;11648;49.306;6.934;2023-09-18T04:59:25;8.63;;;2.03;;
22963;SDS011;11648;49.306;6.934;2023-09-18T05:01:52;6.33;;;1.90;;
22963;SDS011;11648;49.306;6.934;2023-09-18T05:04:19;11.10;;;2.40;;
22963;SDS011;11648;49.306;6.934;2023-09-18T05:06:46;5.63;;;1.97;;
22963;SDS011;11648;49.306;6.934;2023-09-18T05:09:13;7.93;;;2.00;;
22963;SDS011;11648;49.306;6.934;2023-09-18T05:11:41;7.17;;;1.90;;
22963;SDS011;11648;49.306;6.934;2023-09-18T05:14:08;6.20;;;1.83;;
22963;SDS011;11648;49.306;6.934;2023-09-18T05:16:35;6.30;;;1.90;;
22963;SDS011;11648;49.306;6.934;2023-09-18T05:19:02;7.30;;;1.67;;
22963;SDS011;11648;49.306;6.934;2023-09-18T05:21:29;5.50;;;1.77;;
22963;SDS011;11648;49.306;6.934;2023-09-18T05:23:56;3.67;;;1.37;;
22963;SDS011;11648;49.306;6.934;2023-09-18T05:26:23;5.13;;;1.60;;
22963;SDS011;11648;49.306;6.934;2023-09-18T05:28:51;5.00;;;1.70;;
22963;SDS011;11648;49.306;6.934;2023-09-18T05:31:18;7.87;;;1.97;;
22963;SDS011;11648;49.306;6.934;2023-09-18T05:33:45;7.30;;;1.50;;
22963;SDS011;11648;49.306;6.934;2023-09-18T05:36:12;6.77;;;1.97;;
22963;SDS011;11648;49.306;6.934;2023-09-18T05:38:40;5.83;;;1.80;;
22963;SDS011;11648;49.306;6.934;2023-09-18T05:41:07;5.43;;;1.60;;
22963;SDS011;11648;49.306;6.934;2023-09-18T05:43:34;7.20;;;1.80;;
22963;SDS011;11648;49.306;6.934;2023-09-18T05:46:02;7.03;;;1.77;;
22963;SDS011;11648;49.306;6.934;2023-09-18T05:48:29;5.93;;;1.50;;
22963;SDS011;11648;49.306;6.934;2023-09-18T05:50:56;6.47;;;1.63;;
22963;SDS011;11648;49.306;6.934;2023-09-18T05:53:23;9.03;;;1.80;;
22963;SDS011;11648;49.306;6.934;2023-09-18T05:55:50;4.77;;;1.60;;
22963;SDS011;11648;49.306;6.934;2023-09-18T05:58:17;8.13;;;2.57;;
22963;SDS011;11648;49.306;6.934;2023-09-18T06:00:46;5.43;;;1.83;;
22963;SDS011;11648;49.306;6.934;2023-09-18T06:03:13;5.03;;;1.53;;
22963;SDS011;11648;49.306;6.934;2023-09-18T06:05:41;4.00;;;1.87;;
22963;SDS011;11648;49.306;6.934;2023-09-18T06:08:08;9.07;;;1.60;;
22963;SDS011;11648;49.306;6.934;2023-09-18T06:10:35;4.53;;;1.73;;
22963;SDS011;11648;49.306;6.934;2023-09-18T06:13:02;6.87;;;1.63;;
22963;SDS011;11648;49.306;6.934;2023-09-18T06:15:31;5.77;;;1.80;;
22963;SDS011;11648;49.306;6.934;2023-09-18T06:17:58;6.57;;;1.53;;
22963;SDS011;11648;49.306;6.934;2023-09-18T06:20:25;7.60;;;1.70;;
22963;SDS011;11648;49.306;6.934;2023-09-18T06:22:52;5.87;;;1.70;;
22963;SDS011;11648;49.306;6.934;2023-09-18T06:25:18;6.40;;;1.53;;
22963;SDS011;11648;49.306;6.934;2023-09-18T06:27:46;5.73;;;1.50;;
22963;SDS011;11648;49.306;6.934;2023-09-18T06:30:13;4.63;;;1.50;;
22963;SDS011;11648;49.306;6.934;2023-09-18T06:32:40;4.70;;;1.30;;
22963;SDS011;11648;49.306;6.934;2023-09-18T06:35:08;4.03;;;1.50;;
22963;SDS011;11648;49.306;6.934;2023-09-18T06:37:36;5.00;;;1.57;;
22963;SDS011;11648;49.306;6.934;2023-09-18T06:40:03;5.57;;;1.53;;
22963;SDS011;11648;49.306;6.934;2023-09-18T06:42:31;7.87;;;2.00;;
22963;SDS011;11648;49.306;6.934;2023-09-18T06:44:58;5.90;;;1.40;;
22963;SDS011;11648;49.306;6.934;2023-09-18T06:47:25;7.60;;;1.60;;
22963;SDS011;11648;49.306;6.934;2023-09-18T06:49:52;6.33;;;1.50;;
22963;SDS011;11648;49.306;6.934;2023-09-18T06:52:19;7.83;;;1.53;;
22963;SDS011;11648;49.306;6.934;2023-09-18T06:54:46;6.13;;;1.87;;
22963;SDS011;11648;49.306;6.934;2023-09-18T06:57:12;6.53;;;1.80;;
22963;SDS011;11648;49.306;6.934;2023-09-18T06:59:39;6.33;;;1.40;;
22963;SDS011;11648;49.306;6.934;2023-09-18T07:02:06;6.63;;;1.80;;
22963;SDS011;11648;49.306;6.934;2023-09-18T07:04:33;3.70;;;1.30;;
22963;SDS011;11648;49.306;6.934;2023-09-18T07:07:00;3.97;;;1.50;;
22963;SDS011;11648;49.306;6.934;2023-09-18T07:09:27;4.33;;;1.40;;
22963;SDS011;11648;49.306;6.934;2023-09-18T07:11:54;5.53;;;1.40;;
22963;SDS011;11648;49.306;6.934;2023-09-18T07:14:21;5.70;;;1.40;;
22963;SDS011;11648;49.306;6.934;2023-09-18T07:16:47;6.30;;;1.33;;
22963;SDS011;11648;49.306;6.934;2023-09-18T07:19:14;4.47;;;1.07;;
22963;SDS011;11648;49.306;6.934;2023-09-18T07:21:44;5.37;;;1.23;;
22963;SDS011;11648;49.306;6.934;2023-09-18T07:24:11;5.37;;;1.20;;
22963;SDS011;11648;49.306;6.934;2023-09-18T07:26:44;3.27;;;1.20;;
22963;SDS011;11648;49.306;6.934;2023-09-18T07:29:12;4.47;;;1.17;;
22963;SDS011;11648;49.306;6.934;2023-09-18T07:31:42;5.97;;;1.20;;
22963;SDS011;11648;49.306;6.934;2023-09-18T07:34:09;2.70;;;0.80;;
22963;SDS011;11648;49.306;6.934;2023-09-18T07:36:40;4.07;;;1.00;;
22963;SDS011;11648;49.306;6.934;2023-09-18T07:39:06;3.37;;;1.00;;
22963;SDS011;11648;49.306;6.934;2023-09-18T07:41:33;3.63;;;1.07;;
22963;SDS011;11648;49.306;6.934;2023-09-18T07:44:00;4.10;;;1.10;;
22963;SDS011;11648;49.306;6.934;2023-09-18T07:46:27;4.67;;;0.90;;
22963;SDS011;11648;49.306;6.934;2023-09-18T07:48:53;4.00;;;1.00;;
22963;SDS011;11648;49.306;6.934;2023-09-18T07:51:20;3.07;;;1.00;;
22963;SDS011;11648;49.306;6.934;2023-09-18T07:53:47;2.37;;;0.90;;
22963;SDS011;11648;49.306;6.934;2023-09-18T07:56:14;5.90;;;1.07;;
22963;SDS011;11648;49.306;6.934;2023-09-18T07:58:41;3.77;;;1.00;;
22963;SDS011;11648;49.306;6.934;2023-09-18T08:01:08;4.33;;;1.10;;
22963;SDS011;11648;49.306;6.934;2023-09-18T08:03:38;3.33;;;1.00;;
22963;SDS011;11648;49.306;6.934;2023-09-18T08:06:05;3.57;;;1.00;;
22963;SDS011;11648;49.306;6.934;2023-09-18T08:08:32;5.27;;;1.10;;
22963;SDS011;11648;49.306;6.934;2023-09-18T08:11:00;2.27;;;0.80;;
22963;SDS011;11648;49.306;6.934;2023-09-18T08:13:35;2.43;;;0.90;;
22963;SDS011;11648;49.306;6.934;2023-09-18T08:16:02;3.33;;;0.80;;
22963;SDS011;11648;49.306;6.934;2023-09-18T08:18:31;3.33;;;1.00;;
22963;SDS011;11648;49.306;6.934;2023-09-18T08:20:59;2.90;;;1.00;;
22963;SDS011;11648;49.306;6.934;2023-09-18T08:23:26;2.53;;;0.90;;
22963;SDS011;11648;49.306;6.934;2023-09-18T08:25:53;4.63;;;1.07;;
22963;SDS011;11648;49.306;6.934;2023-09-18T08:28:24;5.70;;;1.10;;
22963;SDS011;11648;49.306;6.934;2023-09-18T08:30:50;2.83;;;0.90;;
22963;SDS011;11648;49.306;6.934;2023-09-18T08:33:17;4.17;;;0.93;;
22963;SDS011;11648;49.306;6.934;2023-09-18T08:35:44;3.83;;;0.90;;
22963;SDS011;11648;49.306;6.934;2023-09-18T08:38:14;4.47;;;0.80;;
22963;SDS011;11648;49.306;6.934;2023-09-18T08:40:41;2.50;;;0.97;;
22963;SDS011;11648;49.306;6.934;2023-09-18T08:43:11;2.90;;;0.70;;
22963;SDS011;11648;49.306;6.934;2023-09-18T08:45:51;3.27;;;0.80;;
22963;SDS011;11648;49.306;6.934;2023-09-18T08:48:20;4.23;;;0.87;;
22963;SDS011;11648;49.306;6.934;2023-09-18T08:50:48;4.17;;;1.10;;
22963;SDS011;11648;49.306;6.934;2023-09-18T08:53:15;5.27;;;0.90;;
22963;SDS011;11648;49.306;6.934;2023-09-18T08:55:42;3.43;;;0.90;;
22963;SDS011;11648;49.306;6.934;2023-09-18T08:58:09;3.53;;;1.00;;
22963;SDS011;11648;49.306;6.934;2023-09-18T09:00:36;3.03;;;1.00;;
22963;SDS011;11648;49.306;6.934;2023-09-18T09:03:04;1.77;;;0.60;;
22963;SDS011;11648;49.306;6.934;2023-09-18T09:05:31;4.60;;;0.93;;
22963;SDS011;11648;49.306;6.934;2023-09-18T09:07:59;4.30;;;0.90;;
22963;SDS011;11648;49.306;6.934;2023-09-18T09:10:27;2.97;;;0.87;;
22963;SDS011;11648;49.306;6.934;2023-09-18T09:12:54;4.20;;;1.13;;
22963;SDS011;11648;49.306;6.934;2023-09-18T09:15:25;3.97;;;0.93;;
22963;SDS011;11648;49.306;6.934;2023-09-18T09:18:05;2.43;;;0.93;;
22963;SDS011;11648;49.306;6.934;2023-09-18T09:20:34;4.73;;;0.80;;
22963;SDS011;11648;49.306;6.934;2023-09-18T09:23:06;4.10;;;1.00;;
22963;SDS011;11648;49.306;6.934;2023-09-18T09:25:35;2.40;;;0.90;;
22963;SDS011;11648;49.306;6.934;2023-09-18T09:28:03;3.27;;;1.10;;
22963;SDS011;11648;49.306;6.934;2023-09-18T09:30:32;3.90;;;0.90;;
22963;SDS011;11648;49.306;6.934;2023-09-18T09:33:00;3.27;;;1.00;;
22963;SDS011;11648;49.306;6.934;2023-09-18T09:35:30;5.33;;;1.30;;
22963;SDS011;11648;49.306;6.934;2023-09-18T09:38:17;2.83;;;1.13;;
22963;SDS011;11648;49.306;6.934;2023-09-18T09:40:46;3.27;;;0.90;;
22963;SDS011;11648;49.306;6.934;2023-09-18T09:43:13;2.97;;;1.10;;
22963;SDS011;11648;49.306;6.934;2023-09-18T09:45:41;3.50;;;1.10;;
22963;SDS011;11648;49.306;6.934;2023-09-18T09:48:09;4.53;;;1.37;;
22963;SDS011;11648;49.306;6.934;2023-09-18T09:50:46;2.33;;;1.10;;
22963;SDS011;11648;49.306;6.934;2023-09-18T09:53:15;4.87;;;1.07;;
22963;SDS011;11648;49.306;6.934;2023-09-18T09:55:42;3.77;;;1.20;;
22963;SDS011;11648;49.306;6.934;2023-09-18T09:58:09;3.20;;;1.27;;
22963;SDS011;11648;49.306;6.934;2023-09-18T10:00:42;2.57;;;1.10;;
22963;SDS011;11648;49.306;6.934;2023-09-18T10:03:13;4.23;;;1.20;;
22963;SDS011;11648;49.306;6.934;2023-09-18T10:05:43;7.20;;;1.60;;
22963;SDS011;11648;49.306;6.934;2023-09-18T10:08:12;3.20;;;1.10;;
22963;SDS011;11648;49.306;6.934;2023-09-18T10:10:50;3.30;;;1.40;;
22963;SDS011;11648;49.306;6.934;2023-09-18T10:15:45;5.17;;;1.53;;
22963;SDS011;11648;49.306;6.934;2023-09-18T10:18:26;5.90;;;1.70;;
22963;SDS011;11648;49.306;6.934;2023-09-18T10:21:06;4.97;;;2.03;;
22963;SDS011;11648;49.306;6.934;2023-09-18T10:23:46;6.30;;;1.77;;
22963;SDS011;11648;49.306;6.934;2023-09-18T10:26:22;5.43;;;1.93;;
22963;SDS011;11648;49.306;6.934;2023-09-18T10:28:56;3.70;;;1.70;;
22963;SDS011;11648;49.306;6.934;2023-09-18T10:31:26;6.07;;;1.53;;
22963;SDS011;11648;49.306;6.934;2023-09-18T10:33:55;5.17;;;1.97;;
22963;SDS011;11648;49.306;6.934;2023-09-18T10:36:23;3.87;;;1.70;;
22963;SDS011;11648;49.306;6.934;2023-09-18T10:38:55;7.07;;;1.60;;
22963;SDS011;11648;49.306;6.934;2023-09-18T10:41:25;6.90;;;1.53;;
22963;SDS011;11648;49.306;6.934;2023-09-18T10:43:53;2.87;;;1.50;;
22963;SDS011;11648;49.306;6.934;2023-09-18T10:46:20;5.17;;;2.00;;
22963;SDS011;11648;49.306;6.934;2023-09-18T10:48:47;4.60;;;1.60;;
22963;SDS011;11648;49.306;6.934;2023-09-18T10:51:15;6.60;;;1.75;;
22963;SDS011;11648;49.306;6.934;2023-09-18T10:53:50;5.88;;;1.88;;
22963;SDS011;11648;49.306;6.934;2023-09-18T10:56:21;3.92;;;1.80;;
22963;SDS011;11648;49.306;6.934;2023-09-18T10:58:56;4.28;;;1.75;;
22963;SDS011;11648;49.306;6.934;2023-09-18T11:01:24;6.82;;;1.70;;
22963;SDS011;11648;49.306;6.934;2023-09-18T11:03:57;3.88;;;1.30;;
22963;SDS011;11648;49.306;6.934;2023-09-18T11:06:26;4.30;;;1.20;;
22963;SDS011;11648;49.306;6.934;2023-09-18T11:09:00;3.95;;;1.05;;
22963;SDS011;11648;49.306;6.934;2023-09-18T11:11:31;4.40;;;1.20;;
22963;SDS011;11648;49.306;6.934;2023-09-18T11:13:59;5.68;;;1.23;;
22963;SDS011;11648;49.306;6.934;2023-09-18T11:21:28;3.88;;;1.05;;
22963;SDS011;11648;49.306;6.934;2023-09-18T11:24:02;3.95;;;1.20;;
22963;SDS011;11648;49.306;6.934;2023-09-18T11:26:40;3.75;;;1.48;;
22963;SDS011;11648;49.306;6.934;2023-09-18T11:29:09;6.30;;;1.52;;
22963;SDS011;11648;49.306;6.934;2023-09-18T11:34:24;4.53;;;1.85;;
22963;SDS011;11648;49.306;6.934;2023-09-18T11:36:57;4.03;;;1.35;;
22963;SDS011;11648;49.306;6.934;2023-09-18T11:39:40;4.25;;;1.30;;
22963;SDS011;11648;49.306;6.934;2023-09-18T11:42:08;3.90;;;1.23;;
22963;SDS011;11648;49.306;6.934;2023-09-18T11:44:44;3.22;;;1.17;;
22963;SDS011;11648;49.306;6.934;2023-09-18T11:47:17;3.65;;;1.30;;
22963;SDS011;11648;49.306;6.934;2023-09-18T11:49:49;4.68;;;1.40;;
22963;SDS011;11648;49.306;6.934;2023-09-18T11:52:27;3.40;;;1.20;;
22963;SDS011;11648;49.306;6.934;2023-09-18T11:54:57;4.05;;;1.10;;
22963;SDS011;11648;49.306;6.934;2023-09-18T11:57:25;3.25;;;1.17;;
22963;SDS011;11648;49.306;6.934;2023-09-18T11:59:54;3.20;;;1.40;;
22963;SDS011;11648;49.306;6.934;2023-09-18T12:02:29;3.95;;;1.33;;
22963;SDS011;11648;49.306;6.934;2023-09-18T12:05:15;3.50;;;1.20;;
22963;SDS011;11648;49.306;6.934;2023-09-18T12:07:43;3.30;;;1.10;;
22963;SDS011;11648;49.306;6.934;2023-09-18T12:10:12;4.32;;;1.20;;
22963;SDS011;11648;49.306;6.934;2023-09-18T12:12:41;4.18;;;1.10;;
22963;SDS011;11648;49.306;6.934;2023-09-18T12:15:13;3.67;;;1.40;;
22963;SDS011;11648;49.306;6.934;2023-09-18T12:17:43;2.15;;;0.85;;
22963;SDS011;11648;49.306;6.934;2023-09-18T12:20:19;2.45;;;1.05;;
22963;SDS011;11648;49.306;6.934;2023-09-18T12:22:47;4.68;;;1.33;;
22963;SDS011;11648;49.306;6.934;2023-09-18T12:25:15;4.10;;;1.40;;
22963;SDS011;11648;49.306;6.934;2023-09-18T12:27:44;4.05;;;1.45;;
22963;SDS011;11648;49.306;6.934;2023-09-18T12:30:11;2.90;;;1.13;;
22963;SDS011;11648;49.306;6.934;2023-09-18T12:32:46;4.45;;;1.25;;
22963;SDS011;11648;49.306;6.934;2023-09-18T12:35:16;5.00;;;1.80;;
22963;SDS011;11648;49.306;6.934;2023-09-18T12:37:45;3.63;;;1.40;;
22963;SDS011;11648;49.306;6.934;2023-09-18T12:40:22;4.07;;;1.50;;
22963;SDS011;11648;49.306;6.934;2023-09-18T12:42:49;4.45;;;1.60;;
22963;SDS011;11648;49.306;6.934;2023-09-18T12:45:17;5.78;;;1.88;;
22963;SDS011;11648;49.306;6.934;2023-09-18T12:47:44;3.33;;;1.15;;
22963;SDS011;11648;49.306;6.934;2023-09-18T12:50:13;5.18;;;1.50;;
22963;SDS011;11648;49.306;6.934;2023-09-18T12:52:41;3.03;;;1.25;;
22963;SDS011;11648;49.306;6.934;2023-09-18T12:55:08;3.58;;;1.25;;
22963;SDS011;11648;49.306;6.934;2023-09-18T12:57:46;4.53;;;1.42;;
22963;SDS011;11648;49.306;6.934;2023-09-18T13:00:13;3.80;;;1.50;;
22963;SDS011;11648;49.306;6.934;2023-09-18T13:02:44;3.28;;;1.20;;
22963;SDS011;11648;49.306;6.934;2023-09-18T13:05:11;4.15;;;1.30;;
22963;SDS011;11648;49.306;6.934;2023-09-18T13:07:43;2.85;;;1.20;;
22963;SDS011;11648;49.306;6.934;2023-09-18T13:10:11;3.80;;;1.35;;
22963;SDS011;11648;49.306;6.934;2023-09-18T13:12:40;3.55;;;1.40;;
22963;SDS011;11648;49.306;6.934;2023-09-18T13:15:08;2.90;;;1.20;;
22963;SDS011;11648;49.306;6.934;2023-09-18T13:17:39;2.50;;;1.10;;
22963;SDS011;11648;49.306;6.934;2023-09-18T13:20:14;4.10;;;1.27;;
22963;SDS011;11648;49.306;6.934;2023-09-18T13:22:47;4.55;;;1.35;;
22963;SDS011;11648;49.306;6.934;2023-09-18T13:25:21;4.00;;;1.23;;
22963;SDS011;11648;49.306;6.934;2023-09-18T13:27:50;4.93;;;1.45;;
22963;SDS011;11648;49.306;6.934;2023-09-18T13:30:18;4.13;;;1.38;;
22963;SDS011;11648;49.306;6.934;2023-09-18T13:32:47;3.45;;;1.20;;
22963;SDS011;11648;49.306;6.934;2023-09-18T13:35:15;4.53;;;1.30;;
22963;SDS011;11648;49.306;6.934;2023-09-18T13:37:43;2.80;;;1.30;;
22963;SDS011;11648;49.306;6.934;2023-09-18T13:40:11;3.38;;;0.93;;
22963;SDS011;11648;49.306;6.934;2023-09-18T13:42:38;3.90;;;1.20;;
22963;SDS011;11648;49.306;6.934;2023-09-18T13:45:05;2.25;;;1.05;;
22963;SDS011;11648;49.306;6.934;2023-09-18T13:47:34;3.45;;;1.50;;
22963;SDS011;11648;49.306;6.934;2023-09-18T13:50:02;4.28;;;1.30;;
22963;SDS011;11648;49.306;6.934;2023-09-18T13:52:34;4.40;;;1.27;;
22963;SDS011;11648;49.306;6.934;2023-09-18T13:55:02;3.45;;;1.30;;
22963;SDS011;11648;49.306;6.934;2023-09-18T13:57:32;2.97;;;1.27;;
22963;SDS011;11648;49.306;6.934;2023-09-18T13:59:59;2.20;;;1.20;;
22963;SDS011;11648;49.306;6.934;2023-09-18T14:02:38;4.00;;;1.27;;
22963;SDS011;11648;49.306;6.934;2023-09-18T14:05:06;2.30;;;1.20;;
22963;SDS011;11648;49.306;6.934;2023-09-18T14:07:35;2.35;;;0.98;;
22963;SDS011;11648;49.306;6.934;2023-09-18T14:10:02;2.42;;;1.20;;
22963;SDS011;11648;49.306;6.934;2023-09-18T14:12:30;2.47;;;1.30;;
22963;SDS011;11648;49.306;6.934;2023-09-18T14:14:58;3.55;;;1.27;;
22963;SDS011;11648;49.306;6.934;2023-09-18T14:17:44;2.47;;;1.10;;
22963;SDS011;11648;49.306;6.934;2023-09-18T14:20:11;3.70;;;1.20;;
22963;SDS011;11648;49.306;6.934;2023-09-18T14:22:38;3.05;;;1.10;;
22963;SDS011;11648;49.306;6.934;2023-09-18T14:25:05;3.05;;;1.20;;
22963;SDS011;11648;49.306;6.934;2023-09-18T14:27:33;4.25;;;1.38;;
22963;SDS011;11648;49.306;6.934;2023-09-18T14:30:05;4.43;;;1.40;;
22963;SDS011;11648;49.306;6.934;2023-09-18T14:32:34;3.55;;;1.40;;
22963;SDS011;11648;49.306;6.934;2023-09-18T14:35:05;2.90;;;1.30;;
22963;SDS011;11648;49.306;6.934;2023-09-18T14:37:36;2.65;;;1.10;;
22963;SDS011;11648;49.306;6.934;2023-09-18T14:40:03;3.30;;;1.38;;
22963;SDS011;11648;49.306;6.934;2023-09-18T14:42:30;3.50;;;1.30;;
22963;SDS011;11648;49.306;6.934;2023-09-18T14:44:57;3.15;;;1.60;;
22963;SDS011;11648;49.306;6.934;2023-09-18T14:47:24;3.03;;;1.08;;
22963;SDS011;11648;49.306;6.934;2023-09-18T14:49:51;3.33;;;1.35;;
22963;SDS011;11648;49.306;6.934;2023-09-18T14:52:17;4.07;;;1.23;;
22963;SDS011;11648;49.306;6.934;2023-09-18T14:54:45;5.35;;;1.35;;
22963;SDS011;11648;49.306;6.934;2023-09-18T14:57:12;4.82;;;1.20;;
22963;SDS011;11648;49.306;6.934;2023-09-18T14:59:39;2.58;;;1.35;;
22963;SDS011;11648;49.306;6.934;2023-09-18T15:02:09;3.75;;;1.13;;
22963;SDS011;11648;49.306;6.934;2023-09-18T15:04:36;3.53;;;1.42;;
22963;SDS011;11648;49.306;6.934;2023-09-18T15:07:03;3.70;;;1.30;;